sensor_id;sensor_type;location;lat;lon;timestamp;P1;durP1;ratioP1;P2;durP2;ratioP2
24891;SDS011;12954;50.688;10.908;2023-02-13T00:01:43;212.35;;;7.97;;
24891;SDS011;12954;50.688;10.908;2023-02-13T00:04:11;190.40;;;6.60;;
24891;SDS011;12954;50.688;10.908;2023-02-13T00:06:40;265.40;;;9.25;;
24891;SDS011;12954;50.688;10.908;2023-02-13T00:09:10;456.08;;;14.55;;
24891;SDS011;12954;50.688;10.908;2023-02-13T00:11:38;255.13;;;9.10;;
24891;SDS011;12954;50.688;10.908;2023-02-13T00:14:07;422.90;;;13.43;;
24891;SDS011;12954;50.688;10.908;2023-02-13T00:16:35;396.63;;;13.15;;
24891;SDS011;12954;50.688;10.908;2023-02-13T00:19:03;370.02;;;12.25;;
24891;SDS011;12954;50.688;10.908;2023-02-13T00:21:32;542.15;;;16.55;;
24891;SDS011;12954;50.688;10.908;2023-02-13T00:24:00;309.65;;;9.98;;
24891;SDS011;12954;50.688;10.908;2023-02-13T00:26:30;153.50;;;6.82;;
24891;SDS011;12954;50.688;10.908;2023-02-13T00:28:59;115.22;;;4.55;;
24891;SDS011;12954;50.688;10.908;2023-02-13T00:31:27;160.85;;;7.28;;
24891;SDS011;12954;50.688;10.908;2023-02-13T00:33:56;228.10;;;8.50;;
24891;SDS011;12954;50.688;10.908;2023-02-13T00:36:24;415.55;;;13.10;;
24891;SDS011;12954;50.688;10.908;2023-02-13T00:38:53;201.23;;;7.93;;
24891;SDS011;12954;50.688;10.908;2023-02-13T00:41:22;217.35;;;7.50;;
24891;SDS011;12954;50.688;10.908;2023-02-13T00:43:52;171.77;;;7.47;;
24891;SDS011;12954;50.688;10.908;2023-02-13T00:46:21;290.92;;;9.52;;
24891;SDS011;12954;50.688;10.908;2023-02-13T00:48:50;311.75;;;10.10;;
24891;SDS011;12954;50.688;10.908;2023-02-13T00:51:18;240.65;;;8.45;;
24891;SDS011;12954;50.688;10.908;2023-02-13T00:53:46;356.35;;;13.43;;
24891;SDS011;12954;50.688;10.908;2023-02-13T00:56:15;436.25;;;16.02;;
24891;SDS011;12954;50.688;10.908;2023-02-13T00:58:43;155.50;;;6.40;;
24891;SDS011;12954;50.688;10.908;2023-02-13T01:01:13;217.98;;;7.72;;
24891;SDS011;12954;50.688;10.908;2023-02-13T01:03:42;155.35;;;5.32;;
24891;SDS011;12954;50.688;10.908;2023-02-13T01:06:10;250.77;;;8.93;;
24891;SDS011;12954;50.688;10.908;2023-02-13T01:08:39;239.45;;;9.73;;
24891;SDS011;12954;50.688;10.908;2023-02-13T01:11:07;118.38;;;5.30;;
24891;SDS011;12954;50.688;10.908;2023-02-13T01:13:36;114.10;;;4.47;;
24891;SDS011;12954;50.688;10.908;2023-02-13T01:16:05;235.93;;;6.95;;
24891;SDS011;12954;50.688;10.908;2023-02-13T01:18:35;222.05;;;8.43;;
24891;SDS011;12954;50.688;10.908;2023-02-13T01:21:04;281.25;;;10.18;;
24891;SDS011;12954;50.688;10.908;2023-02-13T01:23:35;137.07;;;5.40;;
24891;SDS011;12954;50.688;10.908;2023-02-13T01:26:05;152.20;;;5.63;;
24891;SDS011;12954;50.688;10.908;2023-02-13T01:28:35;164.50;;;6.35;;
24891;SDS011;12954;50.688;10.908;2023-02-13T01:31:03;168.18;;;6.93;;
24891;SDS011;12954;50.688;10.908;2023-02-13T01:33:32;135.45;;;5.20;;
24891;SDS011;12954;50.688;10.908;2023-02-13T01:36:06;142.05;;;5.43;;
24891;SDS011;12954;50.688;10.908;2023-02-13T01:38:35;48.30;;;2.35;;
24891;SDS011;12954;50.688;10.908;2023-02-13T01:41:04;57.83;;;2.65;;
24891;SDS011;12954;50.688;10.908;2023-02-13T01:43:46;34.70;;;2.08;;
24891;SDS011;12954;50.688;10.908;2023-02-13T01:46:18;46.28;;;2.47;;
24891;SDS011;12954;50.688;10.908;2023-02-13T01:48:50;76.40;;;3.13;;
24891;SDS011;12954;50.688;10.908;2023-02-13T01:51:23;55.60;;;2.30;;
24891;SDS011;12954;50.688;10.908;2023-02-13T01:53:57;70.38;;;3.00;;
24891;SDS011;12954;50.688;10.908;2023-02-13T01:56:30;60.92;;;3.00;;
24891;SDS011;12954;50.688;10.908;2023-02-13T01:59:04;73.88;;;3.10;;
24891;SDS011;12954;50.688;10.908;2023-02-13T02:01:36;114.07;;;4.55;;
24891;SDS011;12954;50.688;10.908;2023-02-13T02:04:06;98.47;;;4.43;;
24891;SDS011;12954;50.688;10.908;2023-02-13T02:06:42;70.90;;;2.75;;
24891;SDS011;12954;50.688;10.908;2023-02-13T02:09:13;98.00;;;3.28;;
24891;SDS011;12954;50.688;10.908;2023-02-13T02:11:45;51.33;;;2.42;;
24891;SDS011;12954;50.688;10.908;2023-02-13T02:14:19;58.95;;;2.78;;
24891;SDS011;12954;50.688;10.908;2023-02-13T02:16:48;91.28;;;3.47;;
24891;SDS011;12954;50.688;10.908;2023-02-13T02:19:18;105.85;;;4.32;;
24891;SDS011;12954;50.688;10.908;2023-02-13T02:22:09;127.10;;;4.30;;
24891;SDS011;12954;50.688;10.908;2023-02-13T02:25:17;199.82;;;6.45;;
24891;SDS011;12954;50.688;10.908;2023-02-13T02:28:15;63.92;;;2.90;;
24891;SDS011;12954;50.688;10.908;2023-02-13T02:31:18;77.18;;;3.05;;
24891;SDS011;12954;50.688;10.908;2023-02-13T02:34:10;37.95;;;2.40;;
24891;SDS011;12954;50.688;10.908;2023-02-13T02:36:49;67.53;;;3.03;;
24891;SDS011;12954;50.688;10.908;2023-02-13T02:39:49;119.03;;;5.20;;
24891;SDS011;12954;50.688;10.908;2023-02-13T02:42:32;91.10;;;3.67;;
24891;SDS011;12954;50.688;10.908;2023-02-13T02:45:11;157.10;;;5.97;;
24891;SDS011;12954;50.688;10.908;2023-02-13T02:47:47;300.77;;;9.13;;
24891;SDS011;12954;50.688;10.908;2023-02-13T02:50:40;155.38;;;5.05;;
24891;SDS011;12954;50.688;10.908;2023-02-13T02:53:16;258.92;;;7.18;;
24891;SDS011;12954;50.688;10.908;2023-02-13T02:55:53;69.50;;;2.80;;
24891;SDS011;12954;50.688;10.908;2023-02-13T02:58:29;101.72;;;4.20;;
24891;SDS011;12954;50.688;10.908;2023-02-13T03:01:20;124.20;;;4.65;;
24891;SDS011;12954;50.688;10.908;2023-02-13T03:04:10;127.85;;;4.75;;
24891;SDS011;12954;50.688;10.908;2023-02-13T03:07:18;34.80;;;1.83;;
24891;SDS011;12954;50.688;10.908;2023-02-13T03:09:48;2.90;;;1.20;;
24891;SDS011;12954;50.688;10.908;2023-02-13T03:12:41;9.68;;;1.45;;
24891;SDS011;12954;50.688;10.908;2023-02-13T03:15:31;3.50;;;1.30;;
24891;SDS011;12954;50.688;10.908;2023-02-13T03:18:01;2.00;;;1.80;;
24891;SDS011;12954;50.688;10.908;2023-02-13T03:20:48;2.10;;;1.60;;
24891;SDS011;12954;50.688;10.908;2023-02-13T03:23:43;2.17;;;1.77;;
24891;SDS011;12954;50.688;10.908;2023-02-13T03:26:26;3.33;;;2.10;;
24891;SDS011;12954;50.688;10.908;2023-02-13T03:29:27;8.35;;;1.80;;
24891;SDS011;12954;50.688;10.908;2023-02-13T03:32:36;19.42;;;2.05;;
24891;SDS011;12954;50.688;10.908;2023-02-13T03:35:15;29.60;;;2.47;;
24891;SDS011;12954;50.688;10.908;2023-02-13T03:38:08;29.02;;;1.92;;
24891;SDS011;12954;50.688;10.908;2023-02-13T03:40:44;29.02;;;1.88;;
24891;SDS011;12954;50.688;10.908;2023-02-13T03:43:31;15.27;;;1.50;;
24891;SDS011;12954;50.688;10.908;2023-02-13T03:46:06;11.85;;;1.73;;
24891;SDS011;12954;50.688;10.908;2023-02-13T03:48:37;15.68;;;2.30;;
24891;SDS011;12954;50.688;10.908;2023-02-13T03:51:26;4.32;;;1.50;;
24891;SDS011;12954;50.688;10.908;2023-02-13T03:53:59;5.50;;;1.50;;
24891;SDS011;12954;50.688;10.908;2023-02-13T03:56:33;6.28;;;1.40;;
24891;SDS011;12954;50.688;10.908;2023-02-13T03:59:25;4.40;;;1.70;;
24891;SDS011;12954;50.688;10.908;2023-02-13T04:01:58;4.33;;;1.73;;
24891;SDS011;12954;50.688;10.908;2023-02-13T04:04:34;9.43;;;4.10;;
24891;SDS011;12954;50.688;10.908;2023-02-13T04:07:11;28.67;;;4.15;;
24891;SDS011;12954;50.688;10.908;2023-02-13T04:09:55;20.40;;;4.43;;
24891;SDS011;12954;50.688;10.908;2023-02-13T04:12:29;33.33;;;3.70;;
24891;SDS011;12954;50.688;10.908;2023-02-13T04:15:07;4.20;;;2.70;;
24891;SDS011;12954;50.688;10.908;2023-02-13T04:17:42;24.02;;;3.90;;
24891;SDS011;12954;50.688;10.908;2023-02-13T04:20:14;9.60;;;3.10;;
24891;SDS011;12954;50.688;10.908;2023-02-13T04:22:43;22.60;;;2.65;;
24891;SDS011;12954;50.688;10.908;2023-02-13T04:25:13;12.15;;;2.38;;
24891;SDS011;12954;50.688;10.908;2023-02-13T04:27:45;3.20;;;1.73;;
24891;SDS011;12954;50.688;10.908;2023-02-13T04:30:13;5.20;;;2.50;;
24891;SDS011;12954;50.688;10.908;2023-02-13T04:32:42;3.10;;;1.75;;
24891;SDS011;12954;50.688;10.908;2023-02-13T04:35:11;2.53;;;1.88;;
24891;SDS011;12954;50.688;10.908;2023-02-13T04:37:40;5.80;;;3.47;;
24891;SDS011;12954;50.688;10.908;2023-02-13T04:40:09;5.13;;;3.40;;
24891;SDS011;12954;50.688;10.908;2023-02-13T04:42:38;3.63;;;2.67;;
24891;SDS011;12954;50.688;10.908;2023-02-13T04:45:08;3.25;;;2.60;;
24891;SDS011;12954;50.688;10.908;2023-02-13T04:47:37;4.28;;;2.50;;
24891;SDS011;12954;50.688;10.908;2023-02-13T04:50:06;3.60;;;2.90;;
24891;SDS011;12954;50.688;10.908;2023-02-13T04:52:35;3.28;;;2.50;;
24891;SDS011;12954;50.688;10.908;2023-02-13T04:55:03;3.10;;;2.30;;
24891;SDS011;12954;50.688;10.908;2023-02-13T04:57:32;3.05;;;2.03;;
24891;SDS011;12954;50.688;10.908;2023-02-13T05:00:01;3.40;;;2.33;;
24891;SDS011;12954;50.688;10.908;2023-02-13T05:02:32;2.80;;;2.15;;
24891;SDS011;12954;50.688;10.908;2023-02-13T05:05:00;3.67;;;2.72;;
24891;SDS011;12954;50.688;10.908;2023-02-13T05:07:29;6.07;;;4.20;;
24891;SDS011;12954;50.688;10.908;2023-02-13T05:09:57;4.43;;;3.50;;
24891;SDS011;12954;50.688;10.908;2023-02-13T05:12:26;2.75;;;2.45;;
24891;SDS011;12954;50.688;10.908;2023-02-13T05:14:54;3.40;;;2.40;;
24891;SDS011;12954;50.688;10.908;2023-02-13T05:17:23;3.65;;;2.50;;
24891;SDS011;12954;50.688;10.908;2023-02-13T05:19:55;3.17;;;2.50;;
24891;SDS011;12954;50.688;10.908;2023-02-13T05:22:24;2.85;;;2.05;;
24891;SDS011;12954;50.688;10.908;2023-02-13T05:25:10;3.53;;;2.80;;
24891;SDS011;12954;50.688;10.908;2023-02-13T05:27:39;2.58;;;2.17;;
24891;SDS011;12954;50.688;10.908;2023-02-13T05:30:07;3.53;;;2.90;;
24891;SDS011;12954;50.688;10.908;2023-02-13T05:32:36;4.80;;;3.95;;
24891;SDS011;12954;50.688;10.908;2023-02-13T05:35:07;4.90;;;3.58;;
24891;SDS011;12954;50.688;10.908;2023-02-13T05:37:35;5.65;;;4.07;;
24891;SDS011;12954;50.688;10.908;2023-02-13T05:40:04;6.57;;;4.95;;
24891;SDS011;12954;50.688;10.908;2023-02-13T05:42:34;4.20;;;3.50;;
24891;SDS011;12954;50.688;10.908;2023-02-13T05:45:02;3.92;;;3.30;;
24891;SDS011;12954;50.688;10.908;2023-02-13T05:47:31;3.35;;;3.03;;
24891;SDS011;12954;50.688;10.908;2023-02-13T05:49:59;4.47;;;3.53;;
24891;SDS011;12954;50.688;10.908;2023-02-13T05:52:29;4.30;;;3.58;;
24891;SDS011;12954;50.688;10.908;2023-02-13T05:54:57;4.20;;;3.30;;
24891;SDS011;12954;50.688;10.908;2023-02-13T05:57:26;4.40;;;3.58;;
24891;SDS011;12954;50.688;10.908;2023-02-13T05:59:54;5.18;;;3.92;;
24891;SDS011;12954;50.688;10.908;2023-02-13T06:02:23;6.00;;;4.15;;
24891;SDS011;12954;50.688;10.908;2023-02-13T06:04:52;7.10;;;4.00;;
24891;SDS011;12954;50.688;10.908;2023-02-13T06:07:20;3.42;;;3.05;;
24891;SDS011;12954;50.688;10.908;2023-02-13T06:09:50;4.88;;;4.15;;
24891;SDS011;12954;50.688;10.908;2023-02-13T06:12:18;5.45;;;4.07;;
24891;SDS011;12954;50.688;10.908;2023-02-13T06:14:47;4.93;;;3.90;;
24891;SDS011;12954;50.688;10.908;2023-02-13T06:17:16;4.15;;;3.28;;
24891;SDS011;12954;50.688;10.908;2023-02-13T06:19:44;4.07;;;3.25;;
24891;SDS011;12954;50.688;10.908;2023-02-13T06:22:13;3.95;;;2.97;;
24891;SDS011;12954;50.688;10.908;2023-02-13T06:24:41;5.07;;;2.90;;
24891;SDS011;12954;50.688;10.908;2023-02-13T06:27:11;4.13;;;3.45;;
24891;SDS011;12954;50.688;10.908;2023-02-13T06:29:40;6.68;;;5.22;;
24891;SDS011;12954;50.688;10.908;2023-02-13T06:32:08;4.18;;;3.25;;
24891;SDS011;12954;50.688;10.908;2023-02-13T06:34:37;2.90;;;2.05;;
24891;SDS011;12954;50.688;10.908;2023-02-13T06:37:05;3.95;;;2.00;;
24891;SDS011;12954;50.688;10.908;2023-02-13T06:39:33;2.30;;;1.70;;
24891;SDS011;12954;50.688;10.908;2023-02-13T06:42:02;1.60;;;1.50;;
24891;SDS011;12954;50.688;10.908;2023-02-13T06:44:31;1.85;;;1.38;;
24891;SDS011;12954;50.688;10.908;2023-02-13T06:47:00;2.45;;;1.30;;
24891;SDS011;12954;50.688;10.908;2023-02-13T06:49:29;1.65;;;1.55;;
24891;SDS011;12954;50.688;10.908;2023-02-13T06:51:57;2.47;;;1.48;;
24891;SDS011;12954;50.688;10.908;2023-02-13T06:54:25;1.83;;;1.42;;
24891;SDS011;12954;50.688;10.908;2023-02-13T06:57:11;1.85;;;1.70;;
24891;SDS011;12954;50.688;10.908;2023-02-13T06:59:41;1.40;;;1.30;;
24891;SDS011;12954;50.688;10.908;2023-02-13T07:02:10;1.65;;;1.45;;
24891;SDS011;12954;50.688;10.908;2023-02-13T07:04:39;2.15;;;1.60;;
24891;SDS011;12954;50.688;10.908;2023-02-13T07:07:07;2.22;;;1.60;;
24891;SDS011;12954;50.688;10.908;2023-02-13T07:09:36;2.20;;;1.90;;
24891;SDS011;12954;50.688;10.908;2023-02-13T07:12:05;2.33;;;1.63;;
24891;SDS011;12954;50.688;10.908;2023-02-13T07:14:35;2.97;;;1.55;;
24891;SDS011;12954;50.688;10.908;2023-02-13T07:17:05;1.63;;;1.25;;
24891;SDS011;12954;50.688;10.908;2023-02-13T07:19:34;1.23;;;1.10;;
24891;SDS011;12954;50.688;10.908;2023-02-13T07:22:02;1.35;;;1.20;;
24891;SDS011;12954;50.688;10.908;2023-02-13T07:24:30;4.68;;;3.63;;
24891;SDS011;12954;50.688;10.908;2023-02-13T07:27:01;1.98;;;1.05;;
24891;SDS011;12954;50.688;10.908;2023-02-13T07:29:29;3.20;;;1.40;;
24891;SDS011;12954;50.688;10.908;2023-02-13T07:31:58;1.75;;;1.30;;
24891;SDS011;12954;50.688;10.908;2023-02-13T07:34:28;1.77;;;1.25;;
24891;SDS011;12954;50.688;10.908;2023-02-13T07:36:57;1.60;;;1.27;;
24891;SDS011;12954;50.688;10.908;2023-02-13T07:39:25;1.95;;;1.35;;
24891;SDS011;12954;50.688;10.908;2023-02-13T07:41:54;2.10;;;1.35;;
24891;SDS011;12954;50.688;10.908;2023-02-13T07:44:22;1.70;;;1.40;;
24891;SDS011;12954;50.688;10.908;2023-02-13T07:46:51;2.22;;;1.33;;
24891;SDS011;12954;50.688;10.908;2023-02-13T07:49:19;1.77;;;1.25;;
24891;SDS011;12954;50.688;10.908;2023-02-13T07:51:49;2.25;;;1.42;;
24891;SDS011;12954;50.688;10.908;2023-02-13T07:54:18;2.95;;;1.40;;
24891;SDS011;12954;50.688;10.908;2023-02-13T07:56:46;3.40;;;1.88;;
24891;SDS011;12954;50.688;10.908;2023-02-13T07:59:15;3.05;;;1.40;;
24891;SDS011;12954;50.688;10.908;2023-02-13T08:01:43;2.20;;;1.63;;
24891;SDS011;12954;50.688;10.908;2023-02-13T08:04:11;2.47;;;1.67;;
24891;SDS011;12954;50.688;10.908;2023-02-13T08:06:40;1.50;;;1.33;;
24891;SDS011;12954;50.688;10.908;2023-02-13T08:09:13;2.17;;;1.63;;
24891;SDS011;12954;50.688;10.908;2023-02-13T08:12:06;2.63;;;1.42;;
24891;SDS011;12954;50.688;10.908;2023-02-13T08:14:37;5.88;;;1.73;;
24891;SDS011;12954;50.688;10.908;2023-02-13T08:17:05;1.83;;;1.42;;
24891;SDS011;12954;50.688;10.908;2023-02-13T08:19:33;2.88;;;1.80;;
24891;SDS011;12954;50.688;10.908;2023-02-13T08:22:02;2.03;;;1.75;;
24891;SDS011;12954;50.688;10.908;2023-02-13T08:24:32;2.03;;;1.73;;
24891;SDS011;12954;50.688;10.908;2023-02-13T08:27:01;1.52;;;1.20;;
24891;SDS011;12954;50.688;10.908;2023-02-13T08:29:29;3.00;;;1.48;;
24891;SDS011;12954;50.688;10.908;2023-02-13T08:31:57;2.17;;;1.50;;
24891;SDS011;12954;50.688;10.908;2023-02-13T08:34:26;1.60;;;1.27;;
24891;SDS011;12954;50.688;10.908;2023-02-13T08:36:55;2.30;;;1.83;;
24891;SDS011;12954;50.688;10.908;2023-02-13T08:39:23;3.17;;;2.28;;
24891;SDS011;12954;50.688;10.908;2023-02-13T08:41:53;1.88;;;1.50;;
24891;SDS011;12954;50.688;10.908;2023-02-13T08:44:21;2.67;;;1.42;;
24891;SDS011;12954;50.688;10.908;2023-02-13T08:46:50;3.10;;;1.67;;
24891;SDS011;12954;50.688;10.908;2023-02-13T08:49:19;3.00;;;1.85;;
24891;SDS011;12954;50.688;10.908;2023-02-13T08:51:48;2.40;;;1.95;;
24891;SDS011;12954;50.688;10.908;2023-02-13T08:54:17;2.63;;;2.00;;
24891;SDS011;12954;50.688;10.908;2023-02-13T08:56:46;4.00;;;2.97;;
24891;SDS011;12954;50.688;10.908;2023-02-13T08:59:16;3.60;;;2.80;;
24891;SDS011;12954;50.688;10.908;2023-02-13T09:01:44;4.95;;;3.15;;
24891;SDS011;12954;50.688;10.908;2023-02-13T09:04:13;3.20;;;2.90;;
24891;SDS011;12954;50.688;10.908;2023-02-13T09:06:43;4.82;;;2.72;;
24891;SDS011;12954;50.688;10.908;2023-02-13T09:09:12;3.30;;;2.60;;
24891;SDS011;12954;50.688;10.908;2023-02-13T09:11:41;4.15;;;2.95;;
24891;SDS011;12954;50.688;10.908;2023-02-13T09:14:09;3.13;;;2.38;;
24891;SDS011;12954;50.688;10.908;2023-02-13T09:16:39;4.85;;;2.60;;
24891;SDS011;12954;50.688;10.908;2023-02-13T09:19:08;4.35;;;2.60;;
24891;SDS011;12954;50.688;10.908;2023-02-13T09:21:36;6.03;;;2.20;;
24891;SDS011;12954;50.688;10.908;2023-02-13T09:24:05;2.20;;;1.70;;
24891;SDS011;12954;50.688;10.908;2023-02-13T09:26:34;2.47;;;1.85;;
24891;SDS011;12954;50.688;10.908;2023-02-13T09:29:03;2.13;;;1.60;;
24891;SDS011;12954;50.688;10.908;2023-02-13T09:31:31;2.70;;;1.73;;
24891;SDS011;12954;50.688;10.908;2023-02-13T09:34:01;3.13;;;2.10;;
24891;SDS011;12954;50.688;10.908;2023-02-13T09:36:30;2.22;;;1.90;;
24891;SDS011;12954;50.688;10.908;2023-02-13T09:38:59;3.13;;;2.17;;
24891;SDS011;12954;50.688;10.908;2023-02-13T09:41:28;3.00;;;1.90;;
24891;SDS011;12954;50.688;10.908;2023-02-13T09:44:00;2.92;;;1.88;;
24891;SDS011;12954;50.688;10.908;2023-02-13T09:46:32;2.42;;;1.85;;
24891;SDS011;12954;50.688;10.908;2023-02-13T09:49:04;2.38;;;1.90;;
24891;SDS011;12954;50.688;10.908;2023-02-13T09:51:35;2.87;;;2.20;;
24891;SDS011;12954;50.688;10.908;2023-02-13T09:54:04;2.80;;;2.20;;
24891;SDS011;12954;50.688;10.908;2023-02-13T09:56:36;2.65;;;2.20;;
24891;SDS011;12954;50.688;10.908;2023-02-13T09:59:14;2.60;;;2.13;;
24891;SDS011;12954;50.688;10.908;2023-02-13T10:01:59;2.88;;;2.40;;
24891;SDS011;12954;50.688;10.908;2023-02-13T10:04:33;2.67;;;2.47;;
24891;SDS011;12954;50.688;10.908;2023-02-13T10:07:14;3.35;;;2.60;;
24891;SDS011;12954;50.688;10.908;2023-02-13T10:09:51;3.95;;;2.60;;
24891;SDS011;12954;50.688;10.908;2023-02-13T10:12:43;2.45;;;2.25;;
24891;SDS011;12954;50.688;10.908;2023-02-13T10:15:23;4.95;;;3.45;;
24891;SDS011;12954;50.688;10.908;2023-02-13T10:18:00;3.20;;;2.90;;
24891;SDS011;12954;50.688;10.908;2023-02-13T10:20:33;5.53;;;3.33;;
24891;SDS011;12954;50.688;10.908;2023-02-13T10:23:14;3.60;;;3.20;;
24891;SDS011;12954;50.688;10.908;2023-02-13T10:25:49;4.47;;;3.10;;
24891;SDS011;12954;50.688;10.908;2023-02-13T10:28:27;3.90;;;2.97;;
24891;SDS011;12954;50.688;10.908;2023-02-13T10:31:02;4.95;;;2.60;;
24891;SDS011;12954;50.688;10.908;2023-02-13T10:33:35;4.90;;;3.15;;
24891;SDS011;12954;50.688;10.908;2023-02-13T10:36:14;3.10;;;2.78;;
24891;SDS011;12954;50.688;10.908;2023-02-13T10:38:50;5.45;;;3.30;;
24891;SDS011;12954;50.688;10.908;2023-02-13T10:41:24;4.10;;;2.53;;
24891;SDS011;12954;50.688;10.908;2023-02-13T10:44:05;3.55;;;2.90;;
24891;SDS011;12954;50.688;10.908;2023-02-13T10:46:52;3.45;;;2.65;;
24891;SDS011;12954;50.688;10.908;2023-02-13T10:49:30;3.95;;;2.97;;
24891;SDS011;12954;50.688;10.908;2023-02-13T10:57:23;4.60;;;3.13;;
24891;SDS011;12954;50.688;10.908;2023-02-13T11:00:02;4.93;;;2.92;;
24891;SDS011;12954;50.688;10.908;2023-02-13T11:02:37;3.97;;;3.15;;
24891;SDS011;12954;50.688;10.908;2023-02-13T11:05:12;5.95;;;3.00;;
24891;SDS011;12954;50.688;10.908;2023-02-13T11:07:46;3.83;;;3.10;;
24891;SDS011;12954;50.688;10.908;2023-02-13T11:10:16;3.90;;;3.40;;
24891;SDS011;12954;50.688;10.908;2023-02-13T11:12:46;4.30;;;3.10;;
24891;SDS011;12954;50.688;10.908;2023-02-13T11:15:20;4.30;;;3.15;;
24891;SDS011;12954;50.688;10.908;2023-02-13T11:17:51;5.60;;;3.17;;
24891;SDS011;12954;50.688;10.908;2023-02-13T11:20:25;4.07;;;2.75;;
24891;SDS011;12954;50.688;10.908;2023-02-13T11:23:12;3.75;;;2.90;;
24891;SDS011;12954;50.688;10.908;2023-02-13T11:25:55;3.33;;;2.72;;
24891;SDS011;12954;50.688;10.908;2023-02-13T11:28:25;3.03;;;2.70;;
24891;SDS011;12954;50.688;10.908;2023-02-13T11:31:07;3.35;;;2.75;;
24891;SDS011;12954;50.688;10.908;2023-02-13T11:33:38;4.03;;;2.83;;
24891;SDS011;12954;50.688;10.908;2023-02-13T11:36:08;3.63;;;2.58;;
24891;SDS011;12954;50.688;10.908;2023-02-13T11:38:42;3.40;;;2.42;;
24891;SDS011;12954;50.688;10.908;2023-02-13T11:41:11;3.65;;;2.63;;
24891;SDS011;12954;50.688;10.908;2023-02-13T11:43:43;3.38;;;2.65;;
24891;SDS011;12954;50.688;10.908;2023-02-13T11:46:16;3.63;;;2.55;;
24891;SDS011;12954;50.688;10.908;2023-02-13T11:48:56;3.28;;;1.80;;
24891;SDS011;12954;50.688;10.908;2023-02-13T11:51:34;3.55;;;2.30;;
24891;SDS011;12954;50.688;10.908;2023-02-13T11:54:17;2.88;;;2.08;;
24891;SDS011;12954;50.688;10.908;2023-02-13T11:59:31;2.38;;;1.95;;
24891;SDS011;12954;50.688;10.908;2023-02-13T12:02:13;3.10;;;2.72;;
24891;SDS011;12954;50.688;10.908;2023-02-13T12:04:45;3.38;;;2.15;;
24891;SDS011;12954;50.688;10.908;2023-02-13T12:07:19;2.50;;;1.95;;
24891;SDS011;12954;50.688;10.908;2023-02-13T12:09:52;2.92;;;2.22;;
24891;SDS011;12954;50.688;10.908;2023-02-13T12:12:34;2.30;;;1.83;;
24891;SDS011;12954;50.688;10.908;2023-02-13T12:15:14;2.33;;;1.92;;
24891;SDS011;12954;50.688;10.908;2023-02-13T12:17:46;2.45;;;1.70;;
24891;SDS011;12954;50.688;10.908;2023-02-13T12:20:23;3.70;;;2.20;;
24891;SDS011;12954;50.688;10.908;2023-02-13T12:22:58;3.78;;;2.10;;
24891;SDS011;12954;50.688;10.908;2023-02-13T12:28:44;3.75;;;2.13;;
24891;SDS011;12954;50.688;10.908;2023-02-13T12:31:28;2.92;;;2.05;;
24891;SDS011;12954;50.688;10.908;2023-02-13T12:37:11;3.15;;;2.05;;
24891;SDS011;12954;50.688;10.908;2023-02-13T12:39:53;2.83;;;2.20;;
24891;SDS011;12954;50.688;10.908;2023-02-13T12:42:42;2.38;;;1.90;;
24891;SDS011;12954;50.688;10.908;2023-02-13T12:45:21;2.90;;;2.13;;
24891;SDS011;12954;50.688;10.908;2023-02-13T12:48:03;2.63;;;1.92;;
24891;SDS011;12954;50.688;10.908;2023-02-13T12:53:37;4.70;;;2.17;;
24891;SDS011;12954;50.688;10.908;2023-02-13T12:56:24;4.13;;;2.25;;
24891;SDS011;12954;50.688;10.908;2023-02-13T12:59:09;2.60;;;1.98;;
24891;SDS011;12954;50.688;10.908;2023-02-13T13:01:53;4.65;;;2.28;;
24891;SDS011;12954;50.688;10.908;2023-02-13T13:04:47;2.45;;;1.98;;
24891;SDS011;12954;50.688;10.908;2023-02-13T13:07:36;2.67;;;2.15;;
24891;SDS011;12954;50.688;10.908;2023-02-13T13:13:13;3.00;;;2.47;;
24891;SDS011;12954;50.688;10.908;2023-02-13T13:15:51;3.00;;;2.35;;
24891;SDS011;12954;50.688;10.908;2023-02-13T13:18:30;3.00;;;2.20;;
24891;SDS011;12954;50.688;10.908;2023-02-13T13:21:11;3.08;;;2.33;;
24891;SDS011;12954;50.688;10.908;2023-02-13T13:23:45;2.90;;;2.35;;
24891;SDS011;12954;50.688;10.908;2023-02-13T13:26:21;2.90;;;2.20;;
24891;SDS011;12954;50.688;10.908;2023-02-13T13:28:57;2.92;;;2.00;;
24891;SDS011;12954;50.688;10.908;2023-02-13T13:31:30;3.03;;;2.25;;
24891;SDS011;12954;50.688;10.908;2023-02-13T13:34:04;2.83;;;2.30;;
24891;SDS011;12954;50.688;10.908;2023-02-13T13:36:39;3.75;;;2.67;;
24891;SDS011;12954;50.688;10.908;2023-02-13T13:39:14;2.53;;;2.17;;
24891;SDS011;12954;50.688;10.908;2023-02-13T13:41:54;3.08;;;2.30;;
24891;SDS011;12954;50.688;10.908;2023-02-13T13:44:42;3.08;;;2.60;;
24891;SDS011;12954;50.688;10.908;2023-02-13T13:47:27;4.15;;;2.42;;
24891;SDS011;12954;50.688;10.908;2023-02-13T13:50:12;3.80;;;2.45;;
24891;SDS011;12954;50.688;10.908;2023-02-13T13:53:03;4.03;;;2.47;;
24891;SDS011;12954;50.688;10.908;2023-02-13T13:58:35;3.08;;;2.55;;
24891;SDS011;12954;50.688;10.908;2023-02-13T14:01:21;6.25;;;2.75;;
24891;SDS011;12954;50.688;10.908;2023-02-13T14:03:54;3.28;;;2.53;;
24891;SDS011;12954;50.688;10.908;2023-02-13T14:06:25;2.80;;;2.22;;
24891;SDS011;12954;50.688;10.908;2023-02-13T14:08:58;3.88;;;2.10;;
24891;SDS011;12954;50.688;10.908;2023-02-13T14:11:45;3.45;;;2.22;;
24891;SDS011;12954;50.688;10.908;2023-02-13T14:20:27;3.22;;;2.50;;
24891;SDS011;12954;50.688;10.908;2023-02-13T14:23:06;3.80;;;2.25;;
24891;SDS011;12954;50.688;10.908;2023-02-13T14:25:41;3.53;;;2.42;;
24891;SDS011;12954;50.688;10.908;2023-02-13T14:28:17;3.30;;;2.10;;
24891;SDS011;12954;50.688;10.908;2023-02-13T14:30:49;2.72;;;2.40;;
24891;SDS011;12954;50.688;10.908;2023-02-13T14:33:23;5.82;;;3.88;;
24891;SDS011;12954;50.688;10.908;2023-02-13T14:35:59;6.50;;;3.60;;
24891;SDS011;12954;50.688;10.908;2023-02-13T14:38:31;3.75;;;2.63;;
24891;SDS011;12954;50.688;10.908;2023-02-13T14:41:01;2.72;;;2.25;;
24891;SDS011;12954;50.688;10.908;2023-02-13T14:43:31;3.47;;;2.38;;
24891;SDS011;12954;50.688;10.908;2023-02-13T14:46:13;3.22;;;2.45;;
24891;SDS011;12954;50.688;10.908;2023-02-13T14:48:49;3.53;;;2.35;;
24891;SDS011;12954;50.688;10.908;2023-02-13T14:51:25;2.40;;;1.83;;
24891;SDS011;12954;50.688;10.908;2023-02-13T14:54:04;4.80;;;2.40;;
24891;SDS011;12954;50.688;10.908;2023-02-13T14:56:40;2.30;;;2.05;;
24891;SDS011;12954;50.688;10.908;2023-02-13T14:59:13;2.92;;;1.83;;
24891;SDS011;12954;50.688;10.908;2023-02-13T15:01:46;3.17;;;2.13;;
24891;SDS011;12954;50.688;10.908;2023-02-13T15:04:20;3.45;;;1.98;;
24891;SDS011;12954;50.688;10.908;2023-02-13T15:06:54;3.35;;;2.33;;
24891;SDS011;12954;50.688;10.908;2023-02-13T15:09:29;4.00;;;2.83;;
24891;SDS011;12954;50.688;10.908;2023-02-13T15:12:03;6.40;;;4.95;;
24891;SDS011;12954;50.688;10.908;2023-02-13T15:14:50;4.90;;;2.35;;
24891;SDS011;12954;50.688;10.908;2023-02-13T15:17:19;6.50;;;3.38;;
24891;SDS011;12954;50.688;10.908;2023-02-13T15:19:50;2.72;;;2.10;;
24891;SDS011;12954;50.688;10.908;2023-02-13T15:22:23;2.60;;;2.10;;
24891;SDS011;12954;50.688;10.908;2023-02-13T15:24:57;2.35;;;2.08;;
24891;SDS011;12954;50.688;10.908;2023-02-13T15:27:27;3.67;;;2.20;;
24891;SDS011;12954;50.688;10.908;2023-02-13T15:29:59;3.15;;;2.10;;
24891;SDS011;12954;50.688;10.908;2023-02-13T15:32:30;3.75;;;2.33;;
24891;SDS011;12954;50.688;10.908;2023-02-13T15:35:13;4.18;;;2.22;;
24891;SDS011;12954;50.688;10.908;2023-02-13T15:37:49;4.88;;;3.30;;